sensor_id;sensor_type;location;lat;lon;timestamp;P1;durP1;ratioP1;P2;durP2;ratioP2
43706;SDS011;61348;53.392;-6.248;2023-03-01T00:01:11;2.78;;;2.08;;
43706;SDS011;61348;53.392;-6.248;2023-03-01T00:03:39;9.70;;;1.95;;
43706;SDS011;61348;53.392;-6.248;2023-03-01T00:06:06;9.05;;;4.00;;
43706;SDS011;61348;53.392;-6.248;2023-03-01T00:08:33;2.47;;;1.30;;
43706;SDS011;61348;53.392;-6.248;2023-03-01T00:11:07;1.15;;;0.70;;
43706;SDS011;61348;53.392;-6.248;2023-03-01T00:13:38;2.42;;;1.15;;
43706;SDS011;61348;53.392;-6.248;2023-03-01T00:16:06;3.28;;;1.00;;
43706;SDS011;61348;53.392;-6.248;2023-03-01T00:18:34;5.53;;;1.17;;
43706;SDS011;61348;53.392;-6.248;2023-03-01T00:21:01;5.35;;;0.75;;
43706;SDS011;61348;53.392;-6.248;2023-03-01T00:23:28;4.47;;;0.70;;
43706;SDS011;61348;53.392;-6.248;2023-03-01T00:25:55;3.92;;;0.65;;
43706;SDS011;61348;53.392;-6.248;2023-03-01T00:28:21;3.90;;;0.60;;
43706;SDS011;61348;53.392;-6.248;2023-03-01T00:30:48;3.08;;;0.57;;
43706;SDS011;61348;53.392;-6.248;2023-03-01T00:33:16;0.95;;;0.50;;
43706;SDS011;61348;53.392;-6.248;2023-03-01T00:35:43;2.92;;;0.68;;
43706;SDS011;61348;53.392;-6.248;2023-03-01T00:38:10;4.13;;;0.40;;
43706;SDS011;61348;53.392;-6.248;2023-03-01T00:40:37;1.20;;;0.30;;
43706;SDS011;61348;53.392;-6.248;2023-03-01T00:43:03;3.20;;;0.68;;
43706;SDS011;61348;53.392;-6.248;2023-03-01T00:45:30;2.20;;;0.85;;
43706;SDS011;61348;53.392;-6.248;2023-03-01T00:47:57;4.03;;;0.63;;
43706;SDS011;61348;53.392;-6.248;2023-03-01T00:50:24;2.83;;;0.47;;
43706;SDS011;61348;53.392;-6.248;2023-03-01T00:52:54;4.05;;;1.23;;
43706;SDS011;61348;53.392;-6.248;2023-03-01T00:55:22;1.88;;;0.50;;
43706;SDS011;61348;53.392;-6.248;2023-03-01T00:57:49;1.95;;;0.47;;
43706;SDS011;61348;53.392;-6.248;2023-03-01T01:00:17;0.80;;;0.20;;
43706;SDS011;61348;53.392;-6.248;2023-03-01T01:02:44;0.68;;;0.40;;
43706;SDS011;61348;53.392;-6.248;2023-03-01T01:05:11;0.47;;;0.30;;
43706;SDS011;61348;53.392;-6.248;2023-03-01T01:07:38;2.55;;;0.20;;
43706;SDS011;61348;53.392;-6.248;2023-03-01T01:10:05;0.90;;;0.40;;
43706;SDS011;61348;53.392;-6.248;2023-03-01T01:12:32;1.38;;;0.40;;
43706;SDS011;61348;53.392;-6.248;2023-03-01T01:14:59;1.48;;;0.22;;
43706;SDS011;61348;53.392;-6.248;2023-03-01T01:17:26;1.65;;;0.20;;
43706;SDS011;61348;53.392;-6.248;2023-03-01T01:19:52;6.13;;;0.43;;
43706;SDS011;61348;53.392;-6.248;2023-03-01T01:22:19;2.35;;;0.20;;
43706;SDS011;61348;53.392;-6.248;2023-03-01T01:24:46;0.77;;;0.38;;
43706;SDS011;61348;53.392;-6.248;2023-03-01T01:27:12;3.33;;;0.30;;
43706;SDS011;61348;53.392;-6.248;2023-03-01T01:29:39;2.83;;;0.28;;
43706;SDS011;61348;53.392;-6.248;2023-03-01T01:32:06;0.82;;;0.25;;
43706;SDS011;61348;53.392;-6.248;2023-03-01T01:34:32;1.17;;;0.38;;
43706;SDS011;61348;53.392;-6.248;2023-03-01T01:36:59;0.65;;;0.40;;
43706;SDS011;61348;53.392;-6.248;2023-03-01T01:39:29;0.40;;;0.20;;
43706;SDS011;61348;53.392;-6.248;2023-03-01T01:41:56;0.98;;;0.20;;
43706;SDS011;61348;53.392;-6.248;2023-03-01T01:44:26;4.57;;;0.98;;
43706;SDS011;61348;53.392;-6.248;2023-03-01T01:49:37;1.40;;;0.40;;
43706;SDS011;61348;53.392;-6.248;2023-03-01T01:52:05;3.25;;;1.02;;
43706;SDS011;61348;53.392;-6.248;2023-03-01T01:57:17;1.70;;;0.55;;
43706;SDS011;61348;53.392;-6.248;2023-03-01T02:02:17;1.92;;;0.43;;
43706;SDS011;61348;53.392;-6.248;2023-03-01T02:04:48;0.85;;;0.57;;
43706;SDS011;61348;53.392;-6.248;2023-03-01T02:07:19;3.50;;;0.60;;
43706;SDS011;61348;53.392;-6.248;2023-03-01T02:09:49;1.42;;;0.40;;
43706;SDS011;61348;53.392;-6.248;2023-03-01T02:12:21;1.13;;;0.47;;
43706;SDS011;61348;53.392;-6.248;2023-03-01T02:14:50;0.93;;;0.28;;
43706;SDS011;61348;53.392;-6.248;2023-03-01T02:17:18;1.90;;;0.50;;
43706;SDS011;61348;53.392;-6.248;2023-03-01T02:19:57;5.78;;;0.47;;
43706;SDS011;61348;53.392;-6.248;2023-03-01T02:22:40;2.15;;;0.38;;
43706;SDS011;61348;53.392;-6.248;2023-03-01T02:28:41;1.55;;;0.40;;
43706;SDS011;61348;53.392;-6.248;2023-03-01T02:30:58;0.65;;;0.30;;
43706;SDS011;61348;53.392;-6.248;2023-03-01T02:33:43;5.38;;;0.52;;
43706;SDS011;61348;53.392;-6.248;2023-03-01T02:36:25;0.57;;;0.10;;
43706;SDS011;61348;53.392;-6.248;2023-03-01T02:38:56;2.25;;;0.30;;
43706;SDS011;61348;53.392;-6.248;2023-03-01T02:41:26;1.60;;;0.60;;
43706;SDS011;61348;53.392;-6.248;2023-03-01T02:43:54;2.83;;;0.15;;
43706;SDS011;61348;53.392;-6.248;2023-03-01T02:46:23;0.68;;;0.40;;
43706;SDS011;61348;53.392;-6.248;2023-03-01T02:48:54;2.00;;;0.25;;
43706;SDS011;61348;53.392;-6.248;2023-03-01T02:56:43;2.72;;;0.30;;
43706;SDS011;61348;53.392;-6.248;2023-03-01T02:59:15;3.13;;;0.20;;
43706;SDS011;61348;53.392;-6.248;2023-03-01T03:01:44;3.63;;;1.35;;
43706;SDS011;61348;53.392;-6.248;2023-03-01T03:04:13;0.30;;;0.20;;
43706;SDS011;61348;53.392;-6.248;2023-03-01T03:06:48;4.78;;;0.63;;
43706;SDS011;61348;53.392;-6.248;2023-03-01T03:09:16;0.82;;;0.22;;
43706;SDS011;61348;53.392;-6.248;2023-03-01T03:11:44;0.68;;;0.30;;
43706;SDS011;61348;53.392;-6.248;2023-03-01T03:14:11;2.03;;;0.30;;
43706;SDS011;61348;53.392;-6.248;2023-03-01T03:16:43;2.05;;;0.47;;
43706;SDS011;61348;53.392;-6.248;2023-03-01T03:19:11;1.45;;;0.20;;
43706;SDS011;61348;53.392;-6.248;2023-03-01T03:21:38;4.15;;;0.28;;
43706;SDS011;61348;53.392;-6.248;2023-03-01T03:24:05;0.30;;;0.20;;
43706;SDS011;61348;53.392;-6.248;2023-03-01T03:26:32;5.20;;;0.52;;
43706;SDS011;61348;53.392;-6.248;2023-03-01T03:28:59;2.20;;;0.50;;
43706;SDS011;61348;53.392;-6.248;2023-03-01T03:31:25;4.68;;;0.47;;
43706;SDS011;61348;53.392;-6.248;2023-03-01T03:33:52;2.92;;;0.45;;
43706;SDS011;61348;53.392;-6.248;2023-03-01T03:36:22;1.48;;;0.30;;
43706;SDS011;61348;53.392;-6.248;2023-03-01T03:38:50;1.85;;;0.30;;
43706;SDS011;61348;53.392;-6.248;2023-03-01T03:41:16;1.15;;;0.50;;
43706;SDS011;61348;53.392;-6.248;2023-03-01T03:43:43;2.67;;;0.52;;
43706;SDS011;61348;53.392;-6.248;2023-03-01T03:46:10;2.75;;;0.50;;
43706;SDS011;61348;53.392;-6.248;2023-03-01T03:48:40;0.82;;;0.32;;
43706;SDS011;61348;53.392;-6.248;2023-03-01T03:51:11;2.08;;;0.85;;
43706;SDS011;61348;53.392;-6.248;2023-03-01T03:53:40;3.13;;;0.50;;
43706;SDS011;61348;53.392;-6.248;2023-03-01T03:56:07;0.70;;;0.20;;
43706;SDS011;61348;53.392;-6.248;2023-03-01T03:58:34;2.10;;;0.32;;
43706;SDS011;61348;53.392;-6.248;2023-03-01T04:01:02;0.98;;;0.43;;
43706;SDS011;61348;53.392;-6.248;2023-03-01T04:03:29;1.05;;;0.55;;
43706;SDS011;61348;53.392;-6.248;2023-03-01T04:05:58;0.73;;;0.25;;
43706;SDS011;61348;53.392;-6.248;2023-03-01T04:08:26;2.85;;;0.40;;
43706;SDS011;61348;53.392;-6.248;2023-03-01T04:10:58;1.42;;;0.30;;
43706;SDS011;61348;53.392;-6.248;2023-03-01T04:13:46;0.45;;;0.20;;
43706;SDS011;61348;53.392;-6.248;2023-03-01T04:16:13;0.57;;;0.40;;
43706;SDS011;61348;53.392;-6.248;2023-03-01T04:18:40;1.95;;;0.20;;
43706;SDS011;61348;53.392;-6.248;2023-03-01T04:21:06;1.10;;;0.60;;
43706;SDS011;61348;53.392;-6.248;2023-03-01T04:23:33;1.23;;;0.20;;
43706;SDS011;61348;53.392;-6.248;2023-03-01T04:26:00;1.13;;;0.30;;
43706;SDS011;61348;53.392;-6.248;2023-03-01T04:28:28;0.73;;;0.30;;
43706;SDS011;61348;53.392;-6.248;2023-03-01T04:31:06;3.22;;;0.28;;
43706;SDS011;61348;53.392;-6.248;2023-03-01T04:33:40;1.13;;;0.30;;
43706;SDS011;61348;53.392;-6.248;2023-03-01T04:36:13;3.95;;;0.60;;
43706;SDS011;61348;53.392;-6.248;2023-03-01T04:38:41;1.80;;;0.40;;
43706;SDS011;61348;53.392;-6.248;2023-03-01T04:41:09;1.30;;;0.63;;
43706;SDS011;61348;53.392;-6.248;2023-03-01T04:43:37;1.80;;;0.40;;
43706;SDS011;61348;53.392;-6.248;2023-03-01T04:46:08;3.08;;;0.22;;
43706;SDS011;61348;53.392;-6.248;2023-03-01T04:48:40;1.52;;;0.30;;
43706;SDS011;61348;53.392;-6.248;2023-03-01T04:51:08;1.40;;;0.40;;
43706;SDS011;61348;53.392;-6.248;2023-03-01T04:53:35;2.78;;;0.40;;
43706;SDS011;61348;53.392;-6.248;2023-03-01T04:56:05;1.23;;;0.17;;
43706;SDS011;61348;53.392;-6.248;2023-03-01T04:58:32;3.40;;;0.47;;
43706;SDS011;61348;53.392;-6.248;2023-03-01T05:00:59;4.85;;;1.08;;
43706;SDS011;61348;53.392;-6.248;2023-03-01T05:03:25;1.67;;;0.40;;
43706;SDS011;61348;53.392;-6.248;2023-03-01T05:05:52;4.10;;;0.28;;
43706;SDS011;61348;53.392;-6.248;2023-03-01T05:08:19;1.38;;;0.35;;
43706;SDS011;61348;53.392;-6.248;2023-03-01T05:10:50;3.20;;;0.45;;
43706;SDS011;61348;53.392;-6.248;2023-03-01T05:13:19;2.85;;;0.55;;
43706;SDS011;61348;53.392;-6.248;2023-03-01T05:15:48;0.80;;;0.60;;
43706;SDS011;61348;53.392;-6.248;2023-03-01T05:18:23;2.40;;;0.30;;
43706;SDS011;61348;53.392;-6.248;2023-03-01T05:20:52;3.03;;;0.50;;
43706;SDS011;61348;53.392;-6.248;2023-03-01T05:23:22;0.70;;;0.17;;
43706;SDS011;61348;53.392;-6.248;2023-03-01T05:25:49;3.50;;;0.55;;
43706;SDS011;61348;53.392;-6.248;2023-03-01T05:28:19;0.68;;;0.30;;
43706;SDS011;61348;53.392;-6.248;2023-03-01T05:30:46;0.65;;;0.22;;
43706;SDS011;61348;53.392;-6.248;2023-03-01T05:33:13;1.05;;;0.20;;
43706;SDS011;61348;53.392;-6.248;2023-03-01T05:35:43;1.60;;;0.38;;
43706;SDS011;61348;53.392;-6.248;2023-03-01T05:38:11;1.45;;;0.30;;
43706;SDS011;61348;53.392;-6.248;2023-03-01T05:40:40;1.80;;;0.55;;
43706;SDS011;61348;53.392;-6.248;2023-03-01T05:43:07;1.10;;;0.40;;
43706;SDS011;61348;53.392;-6.248;2023-03-01T05:45:35;2.03;;;0.17;;
43706;SDS011;61348;53.392;-6.248;2023-03-01T05:48:04;1.88;;;0.55;;
43706;SDS011;61348;53.392;-6.248;2023-03-01T05:50:33;3.85;;;0.40;;
43706;SDS011;61348;53.392;-6.248;2023-03-01T05:55:40;1.48;;;0.70;;
43706;SDS011;61348;53.392;-6.248;2023-03-01T05:58:12;5.47;;;0.60;;
43706;SDS011;61348;53.392;-6.248;2023-03-01T06:00:41;1.73;;;0.57;;
43706;SDS011;61348;53.392;-6.248;2023-03-01T06:03:11;1.95;;;0.47;;
43706;SDS011;61348;53.392;-6.248;2023-03-01T06:05:41;5.93;;;0.93;;
43706;SDS011;61348;53.392;-6.248;2023-03-01T06:08:09;6.70;;;0.73;;
43706;SDS011;61348;53.392;-6.248;2023-03-01T06:10:37;4.53;;;0.65;;
43706;SDS011;61348;53.392;-6.248;2023-03-01T06:13:04;2.38;;;0.50;;
43706;SDS011;61348;53.392;-6.248;2023-03-01T06:15:30;5.60;;;0.40;;
43706;SDS011;61348;53.392;-6.248;2023-03-01T06:17:57;4.03;;;0.50;;
43706;SDS011;61348;53.392;-6.248;2023-03-01T06:20:27;1.95;;;0.30;;
43706;SDS011;61348;53.392;-6.248;2023-03-01T06:22:55;7.13;;;0.60;;
43706;SDS011;61348;53.392;-6.248;2023-03-01T06:25:23;1.55;;;0.50;;
43706;SDS011;61348;53.392;-6.248;2023-03-01T06:27:57;3.80;;;0.60;;
43706;SDS011;61348;53.392;-6.248;2023-03-01T06:30:24;2.00;;;0.63;;
43706;SDS011;61348;53.392;-6.248;2023-03-01T06:32:52;1.77;;;0.50;;
43706;SDS011;61348;53.392;-6.248;2023-03-01T06:35:19;6.72;;;0.80;;
43706;SDS011;61348;53.392;-6.248;2023-03-01T06:37:46;3.72;;;0.50;;
43706;SDS011;61348;53.392;-6.248;2023-03-01T06:40:13;4.45;;;0.50;;
43706;SDS011;61348;53.392;-6.248;2023-03-01T06:42:42;1.85;;;0.40;;
43706;SDS011;61348;53.392;-6.248;2023-03-01T06:45:10;2.35;;;0.40;;
43706;SDS011;61348;53.392;-6.248;2023-03-01T06:47:37;4.85;;;0.73;;
43706;SDS011;61348;53.392;-6.248;2023-03-01T06:50:05;3.75;;;0.50;;
43706;SDS011;61348;53.392;-6.248;2023-03-01T06:52:31;3.80;;;0.45;;
43706;SDS011;61348;53.392;-6.248;2023-03-01T06:54:58;2.33;;;0.40;;
43706;SDS011;61348;53.392;-6.248;2023-03-01T06:57:26;4.35;;;0.43;;
43706;SDS011;61348;53.392;-6.248;2023-03-01T06:59:53;4.70;;;0.65;;
43706;SDS011;61348;53.392;-6.248;2023-03-01T07:02:20;2.22;;;0.57;;
43706;SDS011;61348;53.392;-6.248;2023-03-01T07:04:48;1.42;;;0.50;;
43706;SDS011;61348;53.392;-6.248;2023-03-01T07:07:17;5.90;;;0.60;;
43706;SDS011;61348;53.392;-6.248;2023-03-01T07:09:45;4.53;;;0.40;;
43706;SDS011;61348;53.392;-6.248;2023-03-01T07:12:12;4.90;;;0.73;;
43706;SDS011;61348;53.392;-6.248;2023-03-01T07:14:39;3.20;;;0.85;;
43706;SDS011;61348;53.392;-6.248;2023-03-01T07:17:06;7.22;;;0.68;;
43706;SDS011;61348;53.392;-6.248;2023-03-01T07:19:33;1.40;;;0.40;;
43706;SDS011;61348;53.392;-6.248;2023-03-01T07:22:00;2.35;;;0.45;;
43706;SDS011;61348;53.392;-6.248;2023-03-01T07:24:27;2.92;;;0.68;;
43706;SDS011;61348;53.392;-6.248;2023-03-01T07:26:54;1.50;;;0.50;;
43706;SDS011;61348;53.392;-6.248;2023-03-01T07:29:21;3.25;;;0.70;;
43706;SDS011;61348;53.392;-6.248;2023-03-01T07:31:47;7.35;;;1.00;;
43706;SDS011;61348;53.392;-6.248;2023-03-01T07:34:14;3.15;;;0.60;;
43706;SDS011;61348;53.392;-6.248;2023-03-01T07:36:41;0.63;;;0.50;;
43706;SDS011;61348;53.392;-6.248;2023-03-01T07:39:09;1.65;;;0.50;;
43706;SDS011;61348;53.392;-6.248;2023-03-01T07:41:37;3.50;;;0.93;;
43706;SDS011;61348;53.392;-6.248;2023-03-01T07:44:04;5.78;;;1.50;;
43706;SDS011;61348;53.392;-6.248;2023-03-01T07:46:31;3.58;;;1.05;;
43706;SDS011;61348;53.392;-6.248;2023-03-01T07:48:58;7.13;;;1.33;;
43706;SDS011;61348;53.392;-6.248;2023-03-01T07:51:25;4.88;;;0.57;;
43706;SDS011;61348;53.392;-6.248;2023-03-01T07:53:52;2.45;;;0.60;;
43706;SDS011;61348;53.392;-6.248;2023-03-01T07:56:19;3.92;;;0.57;;
43706;SDS011;61348;53.392;-6.248;2023-03-01T07:58:47;5.50;;;1.13;;
43706;SDS011;61348;53.392;-6.248;2023-03-01T08:01:17;3.00;;;0.47;;
43706;SDS011;61348;53.392;-6.248;2023-03-01T08:03:45;5.93;;;0.80;;
43706;SDS011;61348;53.392;-6.248;2023-03-01T08:06:12;1.70;;;0.47;;
43706;SDS011;61348;53.392;-6.248;2023-03-01T08:08:41;2.10;;;0.98;;
43706;SDS011;61348;53.392;-6.248;2023-03-01T08:11:09;0.75;;;0.32;;
43706;SDS011;61348;53.392;-6.248;2023-03-01T08:13:37;5.78;;;0.60;;
43706;SDS011;61348;53.392;-6.248;2023-03-01T08:16:05;5.20;;;0.60;;
43706;SDS011;61348;53.392;-6.248;2023-03-01T08:18:34;1.63;;;0.68;;
43706;SDS011;61348;53.392;-6.248;2023-03-01T08:21:02;1.50;;;0.60;;
43706;SDS011;61348;53.392;-6.248;2023-03-01T08:23:30;1.73;;;0.43;;
43706;SDS011;61348;53.392;-6.248;2023-03-01T08:26:07;2.90;;;0.45;;
43706;SDS011;61348;53.392;-6.248;2023-03-01T08:28:45;5.50;;;0.50;;
43706;SDS011;61348;53.392;-6.248;2023-03-01T08:31:14;3.38;;;0.93;;
43706;SDS011;61348;53.392;-6.248;2023-03-01T08:33:44;3.95;;;0.52;;
43706;SDS011;61348;53.392;-6.248;2023-03-01T08:36:17;1.55;;;0.57;;
43706;SDS011;61348;53.392;-6.248;2023-03-01T08:38:44;2.70;;;0.60;;
43706;SDS011;61348;53.392;-6.248;2023-03-01T08:41:12;2.70;;;0.30;;
43706;SDS011;61348;53.392;-6.248;2023-03-01T08:43:39;3.78;;;0.50;;
43706;SDS011;61348;53.392;-6.248;2023-03-01T08:46:06;3.03;;;0.32;;
43706;SDS011;61348;53.392;-6.248;2023-03-01T08:53:40;8.15;;;2.15;;
43706;SDS011;61348;53.392;-6.248;2023-03-01T08:56:07;3.20;;;0.57;;
43706;SDS011;61348;53.392;-6.248;2023-03-01T08:58:35;1.63;;;1.08;;
43706;SDS011;61348;53.392;-6.248;2023-03-01T09:01:09;3.75;;;0.40;;
43706;SDS011;61348;53.392;-6.248;2023-03-01T09:03:37;1.63;;;0.70;;
43706;SDS011;61348;53.392;-6.248;2023-03-01T09:06:05;6.35;;;0.68;;
43706;SDS011;61348;53.392;-6.248;2023-03-01T09:08:37;0.30;;;0.30;;
43706;SDS011;61348;53.392;-6.248;2023-03-01T09:11:06;2.10;;;0.35;;
43706;SDS011;61348;53.392;-6.248;2023-03-01T17:51:09;7.55;;;1.70;;
43706;SDS011;61348;53.392;-6.248;2023-03-01T17:54:16;7.35;;;2.63;;
43706;SDS011;61348;53.392;-6.248;2023-03-01T17:57:03;9.88;;;3.40;;
43706;SDS011;61348;53.392;-6.248;2023-03-01T17:59:50;7.63;;;2.13;;
43706;SDS011;61348;53.392;-6.248;2023-03-01T18:02:37;3.03;;;1.20;;
43706;SDS011;61348;53.392;-6.248;2023-03-01T18:05:24;2.53;;;0.90;;
43706;SDS011;61348;53.392;-6.248;2023-03-01T18:08:11;7.65;;;1.15;;
43706;SDS011;61348;53.392;-6.248;2023-03-01T18:10:58;4.78;;;1.02;;
43706;SDS011;61348;53.392;-6.248;2023-03-01T18:13:46;2.88;;;1.45;;
43706;SDS011;61348;53.392;-6.248;2023-03-01T18:16:33;6.80;;;1.90;;
43706;SDS011;61348;53.392;-6.248;2023-03-01T18:19:21;6.05;;;2.00;;
43706;SDS011;61348;53.392;-6.248;2023-03-01T18:22:08;5.55;;;1.55;;
43706;SDS011;61348;53.392;-6.248;2023-03-01T18:24:55;5.10;;;2.03;;
43706;SDS011;61348;53.392;-6.248;2023-03-01T18:27:42;4.60;;;1.63;;
43706;SDS011;61348;53.392;-6.248;2023-03-01T18:30:29;4.28;;;1.50;;
43706;SDS011;61348;53.392;-6.248;2023-03-01T18:33:16;6.68;;;2.00;;
43706;SDS011;61348;53.392;-6.248;2023-03-01T18:36:03;3.50;;;1.20;;
43706;SDS011;61348;53.392;-6.248;2023-03-01T18:38:31;13.05;;;1.85;;
43706;SDS011;61348;53.392;-6.248;2023-03-01T18:40:59;6.60;;;1.52;;
43706;SDS011;61348;53.392;-6.248;2023-03-01T18:43:26;5.25;;;1.45;;
43706;SDS011;61348;53.392;-6.248;2023-03-01T18:45:57;4.40;;;2.38;;
43706;SDS011;61348;53.392;-6.248;2023-03-01T18:48:25;3.17;;;1.67;;
43706;SDS011;61348;53.392;-6.248;2023-03-01T18:50:51;6.95;;;1.77;;
43706;SDS011;61348;53.392;-6.248;2023-03-01T18:53:18;3.65;;;1.50;;
43706;SDS011;61348;53.392;-6.248;2023-03-01T18:55:45;4.32;;;1.58;;
43706;SDS011;61348;53.392;-6.248;2023-03-01T18:58:11;5.82;;;1.17;;
43706;SDS011;61348;53.392;-6.248;2023-03-01T19:00:38;9.88;;;2.00;;
43706;SDS011;61348;53.392;-6.248;2023-03-01T19:03:05;4.55;;;1.73;;
43706;SDS011;61348;53.392;-6.248;2023-03-01T19:05:31;4.63;;;1.67;;
43706;SDS011;61348;53.392;-6.248;2023-03-01T19:07:58;5.10;;;1.90;;
43706;SDS011;61348;53.392;-6.248;2023-03-01T19:10:25;6.35;;;1.42;;
43706;SDS011;61348;53.392;-6.248;2023-03-01T19:12:52;4.05;;;1.63;;
43706;SDS011;61348;53.392;-6.248;2023-03-01T19:15:18;7.18;;;1.55;;
43706;SDS011;61348;53.392;-6.248;2023-03-01T19:17:45;8.43;;;2.25;;
43706;SDS011;61348;53.392;-6.248;2023-03-01T19:20:12;7.70;;;1.90;;
43706;SDS011;61348;53.392;-6.248;2023-03-01T19:22:38;9.60;;;1.92;;
43706;SDS011;61348;53.392;-6.248;2023-03-01T19:25:05;12.00;;;2.72;;
43706;SDS011;61348;53.392;-6.248;2023-03-01T19:27:32;3.58;;;1.17;;
43706;SDS011;61348;53.392;-6.248;2023-03-01T19:29:59;5.95;;;1.48;;
43706;SDS011;61348;53.392;-6.248;2023-03-01T19:32:26;8.80;;;2.00;;
43706;SDS011;61348;53.392;-6.248;2023-03-01T19:34:53;6.85;;;1.95;;
43706;SDS011;61348;53.392;-6.248;2023-03-01T19:37:19;5.65;;;1.88;;
43706;SDS011;61348;53.392;-6.248;2023-03-01T19:39:46;5.65;;;1.98;;
43706;SDS011;61348;53.392;-6.248;2023-03-01T19:42:13;6.20;;;2.00;;
43706;SDS011;61348;53.392;-6.248;2023-03-01T19:44:39;5.80;;;1.73;;
43706;SDS011;61348;53.392;-6.248;2023-03-01T19:47:06;6.70;;;1.92;;
43706;SDS011;61348;53.392;-6.248;2023-03-01T19:49:34;5.22;;;1.73;;
43706;SDS011;61348;53.392;-6.248;2023-03-01T19:52:03;3.42;;;2.05;;
43706;SDS011;61348;53.392;-6.248;2023-03-01T19:54:30;3.47;;;1.52;;
43706;SDS011;61348;53.392;-6.248;2023-03-01T19:56:57;4.45;;;3.22;;
43706;SDS011;61348;53.392;-6.248;2023-03-01T19:59:25;7.55;;;2.60;;
43706;SDS011;61348;53.392;-6.248;2023-03-01T20:01:53;4.18;;;1.80;;
43706;SDS011;61348;53.392;-6.248;2023-03-01T20:04:21;9.55;;;2.33;;
43706;SDS011;61348;53.392;-6.248;2023-03-01T20:06:48;4.65;;;1.10;;
43706;SDS011;61348;53.392;-6.248;2023-03-01T20:09:14;6.85;;;1.42;;
43706;SDS011;61348;53.392;-6.248;2023-03-01T20:11:47;7.50;;;1.10;;
43706;SDS011;61348;53.392;-6.248;2023-03-01T20:14:15;3.85;;;1.10;;
43706;SDS011;61348;53.392;-6.248;2023-03-01T20:16:42;4.47;;;0.88;;
43706;SDS011;61348;53.392;-6.248;2023-03-01T20:19:08;1.73;;;0.90;;
43706;SDS011;61348;53.392;-6.248;2023-03-01T20:21:35;7.57;;;1.42;;
43706;SDS011;61348;53.392;-6.248;2023-03-01T20:24:02;1.40;;;0.63;;
43706;SDS011;61348;53.392;-6.248;2023-03-01T20:26:28;2.65;;;1.15;;
43706;SDS011;61348;53.392;-6.248;2023-03-01T20:28:56;3.83;;;0.70;;
43706;SDS011;61348;53.392;-6.248;2023-03-01T20:31:23;1.50;;;0.50;;
43706;SDS011;61348;53.392;-6.248;2023-03-01T20:33:56;2.58;;;0.93;;
43706;SDS011;61348;53.392;-6.248;2023-03-01T20:36:24;6.75;;;1.30;;
43706;SDS011;61348;53.392;-6.248;2023-03-01T20:38:52;4.18;;;0.82;;
43706;SDS011;61348;53.392;-6.248;2023-03-01T20:41:19;8.77;;;1.77;;
43706;SDS011;61348;53.392;-6.248;2023-03-01T20:43:47;4.60;;;1.13;;
43706;SDS011;61348;53.392;-6.248;2023-03-01T20:46:19;5.75;;;0.90;;
43706;SDS011;61348;53.392;-6.248;2023-03-01T20:48:49;3.00;;;1.00;;
43706;SDS011;61348;53.392;-6.248;2023-03-01T20:51:19;1.65;;;0.75;;
43706;SDS011;61348;53.392;-6.248;2023-03-01T20:53:46;3.50;;;1.00;;
43706;SDS011;61348;53.392;-6.248;2023-03-01T20:56:13;4.90;;;1.10;;
43706;SDS011;61348;53.392;-6.248;2023-03-01T20:58:41;3.72;;;0.95;;
43706;SDS011;61348;53.392;-6.248;2023-03-01T21:01:09;3.30;;;1.00;;
43706;SDS011;61348;53.392;-6.248;2023-03-01T21:03:39;4.43;;;0.98;;
43706;SDS011;61348;53.392;-6.248;2023-03-01T21:06:07;3.83;;;0.98;;
43706;SDS011;61348;53.392;-6.248;2023-03-01T21:08:34;7.32;;;2.47;;
43706;SDS011;61348;53.392;-6.248;2023-03-01T21:11:01;5.93;;;0.98;;
43706;SDS011;61348;53.392;-6.248;2023-03-01T21:13:31;2.83;;;0.95;;
43706;SDS011;61348;53.392;-6.248;2023-03-01T21:15:59;5.68;;;1.17;;
43706;SDS011;61348;53.392;-6.248;2023-03-01T21:18:29;4.20;;;0.90;;
43706;SDS011;61348;53.392;-6.248;2023-03-01T21:21:02;5.30;;;0.77;;
43706;SDS011;61348;53.392;-6.248;2023-03-01T21:23:31;2.55;;;0.55;;
43706;SDS011;61348;53.392;-6.248;2023-03-01T21:26:03;3.03;;;1.00;;
43706;SDS011;61348;53.392;-6.248;2023-03-01T21:28:35;3.00;;;1.00;;
43706;SDS011;61348;53.392;-6.248;2023-03-01T21:33:43;3.35;;;0.90;;
43706;SDS011;61348;53.392;-6.248;2023-03-01T21:36:12;3.25;;;0.73;;
43706;SDS011;61348;53.392;-6.248;2023-03-01T21:38:41;1.75;;;0.50;;
43706;SDS011;61348;53.392;-6.248;2023-03-01T21:41:19;5.95;;;2.13;;
43706;SDS011;61348;53.392;-6.248;2023-03-01T21:43:47;2.38;;;0.70;;
43706;SDS011;61348;53.392;-6.248;2023-03-01T21:46:17;2.42;;;0.70;;
43706;SDS011;61348;53.392;-6.248;2023-03-01T21:48:46;1.30;;;0.32;;
43706;SDS011;61348;53.392;-6.248;2023-03-01T21:51:16;4.30;;;0.30;;
43706;SDS011;61348;53.392;-6.248;2023-03-01T21:53:44;1.95;;;0.35;;
43706;SDS011;61348;53.392;-6.248;2023-03-01T21:56:16;2.30;;;0.60;;
43706;SDS011;61348;53.392;-6.248;2023-03-01T21:58:44;6.93;;;0.88;;
43706;SDS011;61348;53.392;-6.248;2023-03-01T22:01:12;7.32;;;0.68;;
43706;SDS011;61348;53.392;-6.248;2023-03-01T22:03:41;1.83;;;0.50;;
43706;SDS011;61348;53.392;-6.248;2023-03-01T22:08:46;3.85;;;0.70;;
43706;SDS011;61348;53.392;-6.248;2023-03-01T22:11:16;1.60;;;0.70;;
43706;SDS011;61348;53.392;-6.248;2023-03-01T22:13:44;2.13;;;0.80;;
43706;SDS011;61348;53.392;-6.248;2023-03-01T22:16:12;2.90;;;0.77;;
43706;SDS011;61348;53.392;-6.248;2023-03-01T22:18:39;1.45;;;0.50;;
43706;SDS011;61348;53.392;-6.248;2023-03-01T22:21:06;2.83;;;0.50;;
43706;SDS011;61348;53.392;-6.248;2023-03-01T22:23:34;1.77;;;0.88;;
43706;SDS011;61348;53.392;-6.248;2023-03-01T22:26:01;4.53;;;0.50;;
43706;SDS011;61348;53.392;-6.248;2023-03-01T22:28:28;1.92;;;0.50;;
43706;SDS011;61348;53.392;-6.248;2023-03-01T22:30:55;6.53;;;0.70;;
43706;SDS011;61348;53.392;-6.248;2023-03-01T22:33:22;4.82;;;0.70;;
43706;SDS011;61348;53.392;-6.248;2023-03-01T22:35:49;2.70;;;0.80;;
43706;SDS011;61348;53.392;-6.248;2023-03-01T22:38:16;5.85;;;1.90;;
43706;SDS011;61348;53.392;-6.248;2023-03-01T22:40:42;4.95;;;0.88;;
43706;SDS011;61348;53.392;-6.248;2023-03-01T22:43:09;6.03;;;1.58;;
43706;SDS011;61348;53.392;-6.248;2023-03-01T22:45:36;1.35;;;0.50;;
43706;SDS011;61348;53.392;-6.248;2023-03-01T22:48:02;2.17;;;0.30;;
43706;SDS011;61348;53.392;-6.248;2023-03-01T22:50:30;3.83;;;0.70;;
43706;SDS011;61348;53.392;-6.248;2023-03-01T22:52:57;3.28;;;0.30;;
43706;SDS011;61348;53.392;-6.248;2023-03-01T22:55:26;2.97;;;0.80;;
43706;SDS011;61348;53.392;-6.248;2023-03-01T22:57:53;2.53;;;0.47;;
43706;SDS011;61348;53.392;-6.248;2023-03-01T23:00:20;1.52;;;0.98;;
43706;SDS011;61348;53.392;-6.248;2023-03-01T23:02:47;5.40;;;1.38;;
43706;SDS011;61348;53.392;-6.248;2023-03-01T23:05:15;1.75;;;0.43;;
43706;SDS011;61348;53.392;-6.248;2023-03-01T23:07:42;2.28;;;0.50;;
43706;SDS011;61348;53.392;-6.248;2023-03-01T23:10:10;5.05;;;0.80;;
43706;SDS011;61348;53.392;-6.248;2023-03-01T23:12:37;4.15;;;0.90;;
43706;SDS011;61348;53.392;-6.248;2023-03-01T23:15:04;4.45;;;0.68;;
43706;SDS011;61348;53.392;-6.248;2023-03-01T23:17:31;6.18;;;0.60;;
43706;SDS011;61348;53.392;-6.248;2023-03-01T23:19:59;5.25;;;0.68;;
43706;SDS011;61348;53.392;-6.248;2023-03-01T23:22:28;3.63;;;0.50;;
43706;SDS011;61348;53.392;-6.248;2023-03-01T23:24:55;4.82;;;0.82;;
43706;SDS011;61348;53.392;-6.248;2023-03-01T23:27:23;4.63;;;0.82;;
43706;SDS011;61348;53.392;-6.248;2023-03-01T23:29:50;3.95;;;2.10;;
43706;SDS011;61348;53.392;-6.248;2023-03-01T23:32:17;1.63;;;0.60;;
43706;SDS011;61348;53.392;-6.248;2023-03-01T23:34:44;5.60;;;1.10;;
43706;SDS011;61348;53.392;-6.248;2023-03-01T23:37:10;6.13;;;0.73;;
43706;SDS011;61348;53.392;-6.248;2023-03-01T23:39:37;2.70;;;0.80;;
43706;SDS011;61348;53.392;-6.248;2023-03-01T23:42:04;3.10;;;0.80;;
43706;SDS011;61348;53.392;-6.248;2023-03-01T23:44:31;1.08;;;0.47;;
43706;SDS011;61348;53.392;-6.248;2023-03-01T23:46:58;4.90;;;1.63;;
43706;SDS011;61348;53.392;-6.248;2023-03-01T23:49:24;4.72;;;0.65;;
43706;SDS011;61348;53.392;-6.248;2023-03-01T23:51:51;2.92;;;0.50;;